Time;durP1;ratioP1;P1;durP2;ratioP2;P2;SDS_P1;SDS_P2;PMS_P1;PMS_P2;Temp;Humidity;BMP_temperature;BMP_pressure;BME280_temperature;BME280_humidity;BME280_pressure;Samples;Min_cycle;Max_cycle;Signal;HPM_P1;HPM_P2
2023/03/24 07:01:01;;;;;;;11.80;3.35;;;;;;;-145.79;77.35;77019.06;5322044;27;20354;-79
2023/03/24 07:03:33;;;;;;;12.13;3.60;;;;;;;-145.79;77.40;77012.72;5300550;28;20090;-78
2023/03/24 07:06:07;;;;;;;11.85;3.10;;;;;;;-145.79;77.50;77008.47;5300933;28;20047;-78
2023/03/24 07:08:39;;;;;;;11.88;4.40;;;;;;;-145.79;77.39;77004.25;5300168;28;20024;-78
2023/03/24 07:11:11;;;;;;;8.15;3.47;;;;;;;-145.79;77.22;77004.25;5298769;28;20036;-78
2023/03/24 07:13:42;;;;;;;10.50;4.75;;;;;;;-145.79;76.79;76997.88;5300306;28;20052;-78
2023/03/24 07:16:16;;;;;;;6.95;2.80;;;;;;;-145.79;76.45;77002.13;5299523;28;20033;-78
2023/03/24 07:18:48;;;;;;;8.98;3.10;;;;;;;-145.79;76.09;77002.13;5300392;28;20024;-77
2023/03/24 07:21:19;;;;;;;8.35;2.88;;;;;;;-145.79;76.03;76991.53;5300399;28;20189;-79
2023/03/24 07:23:50;;;;;;;10.55;3.67;;;;;;;-145.79;76.39;76991.53;5300016;28;20031;-79
2023/03/24 07:26:22;;;;;;;9.57;3.33;;;;;;;-145.79;76.15;76983.03;5300650;28;20082;-76
2023/03/24 07:28:53;;;;;;;10.50;2.95;;;;;;;-145.79;76.02;76985.16;5299693;28;20020;-70
2023/03/24 07:31:24;;;;;;;16.80;4.03;;;;;;;-145.79;75.95;76991.53;5288948;28;20115;-69
2023/03/24 07:33:56;;;;;;;11.82;3.53;;;;;;;-145.79;75.84;76991.53;5299838;28;20020;-70
2023/03/24 07:36:30;;;;;;;10.15;3.45;;;;;;;-145.79;76.11;76985.16;5299297;28;20028;-70
2023/03/24 07:39:03;;;;;;;11.60;3.03;;;;;;;-145.79;76.59;76995.75;5300048;28;20025;-70
2023/03/24 07:41:35;;;;;;;8.90;3.42;;;;;;;-145.79;76.44;76995.75;5299285;28;20044;-70
2023/03/24 07:44:07;;;;;;;10.85;3.67;;;;;;;-145.79;76.38;76995.75;5291206;28;20483;-71
2023/03/24 07:46:39;;;;;;;11.27;3.80;;;;;;;-145.79;76.96;76997.88;5299002;28;20107;-70
2023/03/24 07:49:11;;;;;;;13.32;3.25;;;;;;;-145.79;76.51;76995.75;5299565;28;20032;-70
2023/03/24 07:51:42;;;;;;;14.18;3.50;;;;;;;-145.79;76.55;76995.75;5298648;28;20182;-70
2023/03/24 07:54:13;;;;;;;9.48;3.15;;;;;;;-145.79;76.36;77000.00;5298652;28;20103;-71
2023/03/24 07:56:44;;;;;;;15.25;3.40;;;;;;;-145.79;76.77;76991.53;5298971;28;20110;-72
2023/03/24 07:59:19;;;;;;;11.23;2.95;;;;;;;-145.79;76.48;76978.81;5297800;28;20086;-73
2023/03/24 08:01:50;;;;;;;14.60;4.15;;;;;;;-145.79;77.12;76970.31;5298392;28;20059;-72
2023/03/24 08:04:21;;;;;;;10.63;3.13;;;;;;;-145.79;76.56;76974.56;5298440;28;20051;-73
2023/03/24 08:06:53;;;;;;;8.82;3.50;;;;;;;-145.79;75.79;76966.09;5298506;28;20036;-72
2023/03/24 08:09:26;;;;;;;10.07;3.63;;;;;;;-145.79;75.20;76957.59;5298518;28;20021;-72
2023/03/24 08:11:57;;;;;;;8.45;3.08;;;;;;;-145.79;75.01;76951.25;5286385;28;20040;-72
2023/03/24 08:14:28;;;;;;;9.40;3.70;;;;;;;-145.79;74.26;76949.13;5284387;28;20095;-72
2023/03/24 08:17:00;;;;;;;9.25;2.92;;;;;;;-145.79;74.20;76957.59;5276622;28;20523;-73
2023/03/24 08:19:31;;;;;;;12.05;3.60;;;;;;;-145.79;73.75;76949.13;5283467;28;20123;-72
2023/03/24 08:22:02;;;;;;;11.63;3.05;;;;;;;-145.79;73.49;76953.38;5284760;28;20024;-70
2023/03/24 08:24:35;;;;;;;9.15;3.08;;;;;;;-145.79;73.63;76936.41;5283946;28;20679;-71
2023/03/24 08:27:06;;;;;;;7.93;3.15;;;;;;;-145.79;73.67;76919.47;5283099;28;20051;-70
2023/03/24 08:29:37;;;;;;;13.15;3.15;;;;;;;-145.79;72.50;76908.88;5283517;28;20029;-74
2023/03/24 08:32:09;;;;;;;6.82;2.75;;;;;;;-145.79;72.37;76902.50;5284581;28;20028;-70
2023/03/24 08:34:40;;;;;;;11.98;3.55;;;;;;;-145.79;70.96;76908.88;5283930;28;20468;-70
2023/03/24 08:37:11;;;;;;;8.77;2.92;;;;;;;-145.79;71.62;76902.50;5278538;28;20052;-70
2023/03/24 08:39:43;;;;;;;8.73;3.30;;;;;;;-145.79;70.97;76900.38;5281035;28;20143;-71
2023/03/24 08:42:20;;;;;;;10.40;3.67;;;;;;;-145.79;70.60;76902.50;5284238;28;20025;-71
2023/03/24 08:44:52;;;;;;;9.27;2.70;;;;;;;-145.79;70.10;76910.97;5283538;28;20111;-71
2023/03/24 08:47:23;;;;;;;12.80;3.13;;;;;;;-145.79;69.66;76910.97;5283449;28;20103;-70
2023/03/24 08:49:58;;;;;;;8.43;3.05;;;;;;;-145.79;69.75;76910.97;5284239;28;20089;-70
2023/03/24 08:52:30;;;;;;;6.88;2.92;;;;;;;-145.79;69.37;76921.59;5284328;28;20024;-71
2023/03/24 08:55:02;;;;;;;7.28;2.88;;;;;;;-145.79;69.47;76919.47;5282985;28;20069;-72
2023/03/24 08:57:34;;;;;;;8.80;4.15;;;;;;;-145.79;69.96;76927.94;5283725;28;20020;-70
2023/03/24 09:00:14;;;;;;;8.52;2.85;;;;;;;-145.79;69.85;76932.19;5282784;28;20092;-71
2023/03/24 09:02:48;;;;;;;11.57;2.78;;;;;;;-145.79;70.46;76925.81;5283010;28;20031;-74
2023/03/24 09:05:21;;;;;;;12.55;3.05;;;;;;;-145.79;69.93;76927.94;5284134;28;20025;-73
2023/03/24 09:07:52;;;;;;;10.43;3.65;;;;;;;-145.79;70.29;76919.47;5281772;28;20063;-73
2023/03/24 09:10:25;;;;;;;12.38;3.47;;;;;;;-145.79;69.88;76923.69;5284223;28;20063;-72
2023/03/24 09:12:56;;;;;;;9.75;3.05;;;;;;;-145.79;70.13;76917.34;5283212;28;20380;-71
2023/03/24 09:15:27;;;;;;;7.57;3.05;;;;;;;-145.79;69.17;76923.69;5283399;28;20024;-72
2023/03/24 09:17:59;;;;;;;5.65;3.00;;;;;;;-145.79;68.80;76923.69;5283148;28;20028;-73
2023/03/24 09:20:31;;;;;;;11.25;3.83;;;;;;;-145.79;69.33;76919.47;5283757;28;20097;-72
2023/03/24 09:23:02;;;;;;;8.30;2.90;;;;;;;-145.79;68.91;76923.69;5281381;28;20031;-77
2023/03/24 09:25:37;;;;;;;8.10;3.63;;;;;;;-145.79;68.98;76936.41;5283863;28;20081;-75
2023/03/24 09:28:08;;;;;;;9.23;4.32;;;;;;;-145.79;69.54;76932.19;5282383;28;20031;-78
2023/03/24 09:30:40;;;;;;;7.82;2.75;;;;;;;-145.79;69.38;76942.78;5283388;28;20460;-75
2023/03/24 09:33:11;;;;;;;6.93;2.55;;;;;;;-145.79;70.25;76932.19;5285338;28;20029;-78
2023/03/24 09:35:42;;;;;;;13.32;3.35;;;;;;;-145.79;70.46;76930.06;5284008;28;20027;-76
2023/03/24 09:38:14;;;;;;;9.73;2.65;;;;;;;-145.79;70.94;76904.63;5282550;28;20046;-72
2023/03/24 09:40:49;;;;;;;6.30;2.70;;;;;;;-145.79;69.82;76908.88;5283341;28;20028;-71
2023/03/24 09:43:23;;;;;;;;;;;;;;;-145.79;70.25;76906.75;5282491;28;20442;-76
2023/03/24 09:45:57;;;;;;;9.32;3.30;;;;;;;-145.79;70.01;76919.47;5273546;28;19956;-76
2023/03/24 09:48:46;;;;;;;6.68;3.33;;;;;;;-145.79;71.05;76927.94;5281846;28;20111;-76
2023/03/24 09:51:31;;;;;;;10.57;3.30;;;;;;;-145.79;70.87;76919.47;5282154;28;20104;-77
2023/03/24 09:54:21;;;;;;;10.07;3.03;;;;;;;-145.79;70.22;76923.69;5283170;28;20024;-77
2023/03/24 09:56:54;;;;;;;9.35;2.72;;;;;;;-145.79;69.71;76919.47;5277533;28;20070;-76
2023/03/24 09:59:28;;;;;;;10.32;2.95;;;;;;;-145.79;69.44;76910.97;5280795;28;20127;-77
2023/03/24 10:02:00;;;;;;;9.68;3.13;;;;;;;-145.79;69.83;76910.97;5281470;28;20039;-76
2023/03/24 10:04:32;;;;;;;8.57;2.80;;;;;;;-145.79;69.87;76908.88;5281603;28;20021;-77
2023/03/24 10:07:40;;;;;;;5.85;2.67;;;;;;;-145.79;67.29;76904.63;5282444;28;20020;-77
2023/03/24 10:10:30;;;;;;;8.48;3.10;;;;;;;-145.79;67.18;76910.97;5270986;28;20066;-78
2023/03/24 10:13:16;;;;;;;6.28;2.72;;;;;;;-145.79;67.10;76902.50;5270198;28;20025;-75
2023/03/24 10:16:02;;;;;;;7.18;3.03;;;;;;;-145.79;66.82;76896.16;5275167;28;20032;-76
2023/03/24 10:18:48;;;;;;;9.30;3.13;;;;;;;-145.79;65.23;76894.03;5279480;28;20033;-77
2023/03/24 10:21:25;;;;;;;7.55;2.25;;;;;;;-145.79;65.73;76902.50;5280940;28;20365;-75
2023/03/24 10:24:00;;;;;;;7.45;2.70;;;;;;;-145.79;64.59;76896.16;5275648;28;20102;-78
2023/03/24 10:27:08;;;;;;;10.07;3.63;;;;;;;-145.79;64.96;76887.66;5280571;28;20017;-73
2023/03/24 10:29:41;;;;;;;9.63;3.08;;;;;;;-145.79;64.81;76881.31;5273656;28;20020;-72
2023/03/24 10:32:22;;;;;;;7.68;3.05;;;;;;;-145.79;63.38;76864.34;5281844;28;20028;-75
2023/03/24 10:34:57;;;;;;;6.85;3.03;;;;;;;-145.79;63.14;76855.88;5282038;28;20028;-78
2023/03/24 10:37:30;;;;;;;8.68;3.05;;;;;;;-145.79;62.87;76853.75;5282070;28;20078;-73
2023/03/24 10:40:05;;;;;;;8.63;3.05;;;;;;;-145.79;62.94;76851.63;5278357;28;20707;-77
2023/03/24 10:42:36;;;;;;;;;;;;;;;-145.79;62.43;76843.16;5282015;28;20032;-74
2023/03/24 10:45:13;;;;;;;9.60;2.45;;;;;;;-145.79;62.21;76847.41;5282113;28;19939;-74
2023/03/24 10:47:46;;;;;;;6.53;2.47;;;;;;;-145.79;62.38;76849.53;5279869;28;20020;-73
2023/03/24 10:50:23;;;;;;;8.27;2.85;;;;;;;-145.79;63.02;76847.41;5282287;28;20421;-73
2023/03/24 10:52:56;;;;;;;8.18;2.53;;;;;;;-145.79;63.45;76841.03;5281893;28;20058;-73
2023/03/24 10:55:30;;;;;;;7.97;2.90;;;;;;;-145.79;63.49;76847.41;5281678;28;20028;-74
2023/03/24 10:58:02;;;;;;;6.90;3.15;;;;;;;-145.79;62.78;76834.69;5279335;28;20083;-74
2023/03/24 11:00:36;;;;;;;7.63;2.90;;;;;;;-145.79;62.87;76832.56;5276770;28;20040;-74
2023/03/24 11:03:15;;;;;;;10.33;2.87;;;;;;;-145.79;62.82;76824.09;5282057;28;20021;-73
2023/03/24 11:05:46;;;;;;;4.65;2.50;;;;;;;-145.79;63.05;76817.72;5281196;28;20063;-73
2023/03/24 11:08:24;;;;;;;7.60;2.28;;;;;;;-145.79;61.66;76826.22;5279843;28;20064;-73
2023/03/24 11:10:56;;;;;;;7.35;2.30;;;;;;;-145.79;61.94;76809.25;5282259;28;20389;-72
2023/03/24 11:13:33;;;;;;;9.02;3.15;;;;;;;-145.79;62.16;76798.66;5281706;28;20098;-73
2023/03/24 11:16:10;;;;;;;9.02;2.75;;;;;;;-145.79;62.17;76805.00;5281126;28;20035;-71
2023/03/24 11:18:56;;;;;;;9.63;3.63;;;;;;;-145.79;60.78;76805.00;5281398;28;20525;-72
2023/03/24 11:21:29;;;;;;;7.20;2.55;;;;;;;-145.79;59.92;76800.78;5274573;28;20508;-72
2023/03/24 11:24:10;;;;;;;8.45;3.08;;;;;;;-145.79;59.98;76794.41;5281264;28;20031;-72
2023/03/24 11:26:54;;;;;;;6.93;2.13;;;;;;;-145.79;59.30;76794.41;5282315;28;20069;-72
2023/03/24 11:29:26;;;;;;;6.78;2.42;;;;;;;-145.79;58.93;76779.59;5272801;28;20020;-72
2023/03/24 11:32:00;;;;;;;8.07;2.85;;;;;;;-145.79;60.03;76783.81;5282198;28;20025;-72
2023/03/24 11:34:37;;;;;;;7.03;2.45;;;;;;;-145.79;59.66;76794.41;5281752;28;20039;-72
2023/03/24 11:37:24;;;;;;;7.10;2.58;;;;;;;-145.79;59.82;76794.41;5278358;28;20032;-73
2023/03/24 11:40:11;;;;;;;7.25;2.70;;;;;;;-145.79;59.41;76805.00;5282468;28;20170;-73
2023/03/24 11:42:49;;;;;;;8.05;2.30;;;;;;;-145.79;61.42;76815.63;5275272;28;20052;-72
2023/03/24 11:45:42;;;;;;;7.07;2.83;;;;;;;-145.79;63.07;76830.44;5280058;28;20028;-72
2023/03/24 11:48:24;;;;;;;6.32;2.25;;;;;;;-145.79;66.69;76864.34;5283387;28;20429;-71
2023/03/24 11:50:57;;;;;;;8.77;3.47;;;;;;;-145.79;69.50;76906.75;5280428;28;20480;-69
2023/03/24 11:53:46;;;;;;;8.80;3.03;;;;;;;-145.79;74.28;76938.53;5284569;28;20024;-71
2023/03/24 11:56:55;;;;;;;7.32;3.10;;;;;;;-145.79;76.69;76972.44;5279255;28;20024;-75
2023/03/24 12:00:02;;;;;;;8.90;3.65;;;;;;;-145.79;77.95;77010.59;5266704;28;20052;-72
2023/03/24 12:02:55;;;;;;;6.93;2.70;;;;;;;-145.79;79.33;77023.31;5285062;28;20531;-73
2023/03/24 12:05:55;;;;;;;7.47;2.75;;;;;;;-145.79;79.84;77042.38;5284343;28;20040;-72
2023/03/24 12:08:38;;;;;;;5.28;2.20;;;;;;;-145.79;79.62;77063.59;5282664;28;20071;-74
2023/03/24 12:11:30;;;;;;;3.83;1.98;;;;;;;-145.79;80.15;77095.38;5284289;28;20024;-74
2023/03/24 12:14:03;;;;;;;2.25;1.13;;;;;;;-145.79;79.76;77122.94;5281498;28;20075;-74
2023/03/24 12:17:23;;;;;;;3.83;1.60;;;;;;;-145.79;80.53;77114.44;5284647;28;20078;-76
2023/03/24 12:20:19;;;;;;;4.88;1.40;;;;;;;-145.79;81.52;77116.56;5266408;28;20087;-76
2023/03/24 12:23:27;;;;;;;5.05;2.30;;;;;;;-145.79;81.72;77084.78;5276960;28;20025;-76
2023/03/24 12:26:15;;;;;;;4.15;2.65;;;;;;;-145.79;81.44;77055.09;5250409;28;20447;-78
2023/03/24 12:29:20;;;;;;;3.67;1.80;;;;;;;-145.79;79.66;77089.00;5285219;28;20036;-72
2023/03/24 12:32:00;;;;;;;4.65;1.10;;;;;;;-145.79;80.35;77084.78;5260743;28;20047;-77
2023/03/24 12:34:41;;;;;;;2.55;1.00;;;;;;;-145.79;80.17;77089.00;5284349;28;20106;-78
2023/03/24 12:37:30;;;;;;;2.25;1.38;;;;;;;-145.79;80.83;77072.06;5285051;28;20103;-77
2023/03/24 12:40:11;;;;;;;1.05;0.90;;;;;;;-145.79;81.23;77072.06;5277300;28;20043;-78
2023/03/24 12:42:45;;;;;;;5.05;1.42;;;;;;;-145.79;82.16;77044.50;5284601;28;21045;-77
2023/03/24 12:45:19;;;;;;;5.05;2.08;;;;;;;-145.79;80.59;77059.34;5285161;28;20348;-78
2023/03/24 12:47:56;;;;;;;2.13;1.02;;;;;;;-145.79;80.05;77067.81;5286907;28;20032;-79
2023/03/24 12:50:46;;;;;;;3.28;1.70;;;;;;;-145.79;80.22;77046.63;5284111;28;20029;-75
2023/03/24 12:53:33;;;;;;;1.88;1.35;;;;;;;-145.79;81.22;77029.66;5283741;28;20036;-78
2023/03/24 12:56:12;;;;;;;6.28;2.15;;;;;;;-145.79;80.11;77010.59;5284663;28;20032;-78
2023/03/24 12:58:57;;;;;;;3.25;1.63;;;;;;;-145.79;78.74;76972.44;5282807;28;20041;-79
2023/03/24 13:01:35;;;;;;;2.47;1.40;;;;;;;-145.79;79.05;76930.06;5279491;28;20020;-75
2023/03/24 13:04:20;;;;;;;6.25;4.68;;;;;;;-145.79;75.71;76923.69;5277017;28;20033;-77
2023/03/24 13:07:10;;;;;;;7.32;6.13;;;;;;;-145.79;73.56;76902.50;5281153;28;20025;-76
2023/03/24 13:09:52;;;;;;;3.50;1.33;;;;;;;-145.79;72.12;76885.56;5283245;28;20021;-76
2023/03/24 13:12:32;;;;;;;6.22;1.95;;;;;;;-145.79;71.87;76851.63;5273875;28;20032;-76
2023/03/24 13:15:22;;;;;;;2.60;1.58;;;;;;;-145.79;71.51;76841.03;5274919;28;20032;-76
2023/03/24 13:18:08;;;;;;;4.07;1.50;;;;;;;-145.79;71.42;76843.16;5282093;28;20041;-75
2023/03/24 13:20:44;;;;;;;7.22;2.78;;;;;;;-145.79;71.59;76843.16;5277832;28;20032;-76
2023/03/24 13:23:43;;;;;;;5.90;2.00;;;;;;;-145.79;71.40;76832.56;5283755;28;20494;-74
2023/03/24 13:26:35;;;;;;;5.95;2.05;;;;;;;-145.79;72.60;76785.94;5274928;28;20094;-76
2023/03/24 13:29:15;;;;;;;4.35;2.30;;;;;;;-145.79;70.30;76777.47;5272471;28;20035;-78
2023/03/24 13:31:55;;;;;;;3.50;2.38;;;;;;;-145.79;70.43;76758.38;5277045;28;20090;-77
2023/03/24 13:34:42;;;;;;;5.10;2.15;;;;;;;-145.79;70.09;76749.91;5283281;28;20029;-75
2023/03/24 13:37:27;;;;;;;5.28;2.40;;;;;;;-145.79;69.20;76728.72;5274885;28;20047;-78
2023/03/24 13:40:05;;;;;;;6.47;2.53;;;;;;;-145.79;67.03;76726.59;5282644;28;20063;-78
2023/03/24 13:42:44;;;;;;;9.27;3.38;;;;;;;-145.79;68.25;76735.06;5279088;28;20157;-76
2023/03/24 13:45:40;;;;;;;4.90;2.60;;;;;;;-145.79;66.88;76716.00;5280356;28;20029;-76
2023/03/24 13:48:11;;;;;;;10.05;3.22;;;;;;;-145.79;67.60;76728.72;5273021;28;20024;-72
2023/03/24 13:50:57;;;;;;;4.45;2.28;;;;;;;-145.79;67.55;76741.44;5282625;28;20040;-74
2023/03/24 13:53:50;;;;;;;8.45;2.58;;;;;;;-145.79;68.52;76752.03;5282722;28;20060;-75
2023/03/24 13:56:31;;;;;;;6.10;2.67;;;;;;;-145.79;68.72;76752.03;5276157;28;20020;-76
2023/03/24 13:59:34;;;;;;;5.18;2.30;;;;;;;-145.79;68.86;76743.56;5284082;28;20070;-72
2023/03/24 14:02:27;;;;;;;5.35;2.08;;;;;;;-145.79;66.90;76762.63;5282328;28;20033;-73
2023/03/24 14:05:21;;;;;;;4.75;2.00;;;;;;;-145.79;67.50;76771.09;5281996;28;20035;-77
2023/03/24 14:08:01;;;;;;;6.22;1.88;;;;;;;-145.79;67.90;76788.06;5281986;28;20044;-75
2023/03/24 14:10:50;;;;;;;6.53;2.53;;;;;;;-145.79;69.91;76798.66;5281717;28;20115;-77
2023/03/24 14:13:22;;;;;;;7.75;2.30;;;;;;;-145.79;71.15;76809.25;5275535;28;20464;-77
2023/03/24 14:15:57;;;;;;;8.13;3.03;;;;;;;-145.79;72.32;76817.72;5281875;28;20047;-77
2023/03/24 14:18:30;;;;;;;6.05;2.10;;;;;;;-145.79;73.84;76834.69;5281233;28;20029;-76
2023/03/24 14:21:03;;;;;;;5.47;1.95;;;;;;;-145.79;74.17;76832.56;5280656;28;20060;-76
2023/03/24 14:23:41;;;;;;;5.72;2.63;;;;;;;-145.79;74.88;76821.97;5282571;28;20066;-76
2023/03/24 14:26:12;;;;;;;3.22;1.92;;;;;;;-145.79;75.28;76821.97;5281486;28;20043;-78
2023/03/24 14:28:48;;;;;;;4.35;1.85;;;;;;;-145.79;74.18;76796.53;5282320;28;20032;-77
2023/03/24 14:31:23;;;;;;;4.47;1.90;;;;;;;-145.79;75.76;76771.09;5281419;28;20054;-78
2023/03/24 14:34:02;;;;;;;8.35;6.75;;;;;;;-145.79;74.50;76779.59;5282103;28;20028;-77
2023/03/24 14:36:45;;;;;;;9.65;3.05;;;;;;;-145.79;75.39;76779.59;5280328;28;20036;-77
2023/03/24 14:39:43;;;;;;;5.90;2.20;;;;;;;-145.79;76.07;76783.81;5277722;28;20483;-77
2023/03/24 14:42:32;;;;;;;6.07;2.78;;;;;;;-145.79;76.51;76811.38;5282020;28;20029;-77
2023/03/24 14:45:25;;;;;;;3.35;1.75;;;;;;;-145.79;76.51;76811.38;5279571;28;20376;-80
2023/03/24 14:48:02;;;;;;;6.93;2.03;;;;;;;-145.79;76.48;76813.50;5278748;28;20484;-79
2023/03/24 14:50:33;;;;;;;4.50;2.13;;;;;;;-145.79;77.13;76798.66;5275974;28;20037;-77
2023/03/24 14:53:06;;;;;;;6.22;2.50;;;;;;;-145.79;77.69;76794.41;5282008;28;20075;-77
2023/03/24 14:55:38;;;;;;;5.28;3.15;;;;;;;-145.79;77.50;76783.81;5282475;28;20028;-75
2023/03/24 14:58:29;;;;;;;6.40;4.50;;;;;;;-145.79;76.56;76781.69;5281178;28;20086;-78
2023/03/24 15:01:04;;;;;;;9.73;7.57;;;;;;;-145.79;76.48;76790.19;5280844;28;20060;-79
2023/03/24 15:03:48;;;;;;;5.10;2.30;;;;;;;-145.79;76.43;76777.47;5282183;28;20490;-77
2023/03/24 15:06:23;;;;;;;4.20;1.88;;;;;;;-145.79;75.65;76794.41;5281374;28;20474;-79
2023/03/24 15:09:06;;;;;;;4.55;2.00;;;;;;;-145.79;75.37;76813.50;5282892;28;20481;-79
2023/03/24 15:11:43;;;;;;;5.25;1.83;;;;;;;-145.79;76.53;76809.25;5281880;28;20029;-79
2023/03/24 15:14:24;;;;;;;4.18;2.20;;;;;;;-145.79;76.96;76796.53;5280786;28;20035;-79
2023/03/24 15:17:02;;;;;;;6.32;3.28;;;;;;;-145.79;75.94;76781.69;5275203;28;20051;-80
2023/03/24 15:19:34;;;;;;;7.15;2.55;;;;;;;-145.79;75.40;76779.59;5282097;28;20387;-79
2023/03/24 15:22:11;;;;;;;7.10;2.47;;;;;;;-145.79;75.08;76762.63;5278667;28;20024;-78
2023/03/24 15:24:47;;;;;;;6.57;1.98;;;;;;;-145.79;73.83;76756.28;5279833;28;20037;-77
2023/03/24 15:27:23;;;;;;;;;;;;;;;-145.79;74.62;76745.69;5285413;28;20051;-74
2023/03/24 15:29:58;;;;;;;10.13;3.20;;;;;;;-145.79;73.80;76754.16;5285700;28;19916;-80
2023/03/24 15:32:37;;;;;;;;;;;;;;;-145.79;72.55;76745.69;5285347;28;20134;-78
2023/03/24 15:35:13;;;;;;;3.78;1.88;;;;;;;-145.79;73.52;76773.22;5285033;28;19920;-75
2023/03/24 15:37:48;;;;;;;;;;;;;;;-145.79;72.09;76745.69;5278294;28;20032;-77
2023/03/24 15:40:25;;;;;;;11.57;2.40;;;;;;;-145.79;73.09;76730.84;5284794;28;20015;-78
2023/03/24 15:43:05;;;;;;;5.28;2.42;;;;;;;-145.79;73.00;76716.00;5284702;28;20029;-78
2023/03/24 15:45:45;;;;;;;5.07;1.80;;;;;;;-145.79;71.93;76701.16;5284390;28;20024;-78
2023/03/24 15:48:19;;;;;;;4.80;1.77;;;;;;;-145.79;71.49;76690.56;5286659;28;20021;-71
2023/03/24 15:50:59;;;;;;;6.07;2.13;;;;;;;-145.79;71.40;76675.75;5283101;28;20059;-76
2023/03/24 15:53:55;;;;;;;5.35;2.90;;;;;;;-145.79;70.12;76692.69;5286756;28;20048;-77
2023/03/24 15:56:35;;;;;;;5.30;3.00;;;;;;;-145.79;69.74;76699.06;5284761;28;20017;-76
2023/03/24 15:59:06;;;;;;;4.28;3.05;;;;;;;-145.79;69.23;76677.84;5284894;28;20057;-77
2023/03/24 16:01:40;;;;;;;5.63;2.50;;;;;;;-145.79;68.39;76684.22;5283962;28;20032;-77
2023/03/24 16:04:17;;;;;;;4.78;1.55;;;;;;;-145.79;67.57;76694.81;5284540;28;20395;-76
2023/03/24 16:06:52;;;;;;;2.67;1.67;;;;;;;-145.79;68.01;76682.09;5284127;28;20024;-76
2023/03/24 16:09:25;;;;;;;5.78;2.13;;;;;;;-145.79;66.44;76692.69;5284928;28;20463;-77
2023/03/24 16:11:57;;;;;;;3.22;1.73;;;;;;;-145.79;64.54;76665.16;5281901;28;20488;-77
2023/03/24 16:14:31;;;;;;;4.20;2.03;;;;;;;-145.79;64.61;76663.03;5284841;28;20059;-76
2023/03/24 16:17:02;;;;;;;5.55;2.05;;;;;;;-145.79;63.62;76658.78;5278951;28;20047;-77
2023/03/24 16:19:34;;;;;;;4.53;1.90;;;;;;;-145.79;63.95;76646.06;5282470;28;20032;-77
2023/03/24 16:22:11;;;;;;;6.18;3.00;;;;;;;-145.79;63.54;76652.44;5284913;28;20031;-77
2023/03/24 16:24:43;;;;;;;4.47;1.55;;;;;;;-145.79;63.32;76684.22;5284237;28;20035;-77
2023/03/24 16:27:14;;;;;;;5.18;2.33;;;;;;;-145.79;64.59;76686.34;5278375;28;20112;-77
2023/03/24 16:29:46;;;;;;;5.50;2.13;;;;;;;-145.79;64.95;76686.34;5277996;28;20028;-76
2023/03/24 16:32:17;;;;;;;7.80;4.65;;;;;;;-145.79;65.28;76690.56;5283769;28;20033;-77
